Terminal Aerodrome Forecast
Issued by NWS Louisville, KY

Home | Current Version | Previous Version | Text Only | Print | Product List | Glossary On
Versions: 1 2 3 4 5 6 7 8 9 10 11 12 13
000
FTUS43 KLMK 262323
TAFLEX
TAF
KLEX 262323Z 2700/2724 VRB03KT P6SM SCT050
     FM271200 20006KT P6SM VCTS SCT040CB BKN110
     FM271700 24010KT P6SM -SHRA VCTS SCT030CB OVC060=

USA.gov is the U.S. government's official web portal to all federal, state and local government web resources and services.